sensor_id;sensor_type;location;lat;lon;timestamp;P1;durP1;ratioP1;P2;durP2;ratioP2
59159;SDS011;44941;45.058;20.076;2023-07-16T00:02:12;10.20;;;4.45;;
59159;SDS011;44941;45.058;20.076;2023-07-16T00:04:38;14.13;;;5.72;;
59159;SDS011;44941;45.058;20.076;2023-07-16T00:07:04;10.60;;;4.63;;
59159;SDS011;44941;45.058;20.076;2023-07-16T00:09:30;13.48;;;5.25;;
59159;SDS011;44941;45.058;20.076;2023-07-16T00:11:56;9.35;;;5.40;;
59159;SDS011;44941;45.058;20.076;2023-07-16T00:14:22;10.35;;;5.32;;
59159;SDS011;44941;45.058;20.076;2023-07-16T00:16:49;10.20;;;4.90;;
59159;SDS011;44941;45.058;20.076;2023-07-16T00:19:15;11.65;;;4.97;;
59159;SDS011;44941;45.058;20.076;2023-07-16T00:21:41;12.80;;;4.93;;
59159;SDS011;44941;45.058;20.076;2023-07-16T00:24:07;10.48;;;5.13;;
59159;SDS011;44941;45.058;20.076;2023-07-16T00:26:33;8.20;;;5.05;;
59159;SDS011;44941;45.058;20.076;2023-07-16T00:28:59;8.00;;;4.65;;
59159;SDS011;44941;45.058;20.076;2023-07-16T00:31:25;9.80;;;5.22;;
59159;SDS011;44941;45.058;20.076;2023-07-16T00:33:51;7.40;;;4.50;;
59159;SDS011;44941;45.058;20.076;2023-07-16T00:36:17;9.68;;;4.95;;
59159;SDS011;44941;45.058;20.076;2023-07-16T00:38:44;13.35;;;5.18;;
59159;SDS011;44941;45.058;20.076;2023-07-16T00:43:36;11.40;;;5.20;;
59159;SDS011;44941;45.058;20.076;2023-07-16T00:46:02;11.63;;;5.90;;
59159;SDS011;44941;45.058;20.076;2023-07-16T00:48:29;10.00;;;5.50;;
59159;SDS011;44941;45.058;20.076;2023-07-16T00:50:55;9.13;;;5.20;;
59159;SDS011;44941;45.058;20.076;2023-07-16T00:53:21;11.13;;;5.40;;
59159;SDS011;44941;45.058;20.076;2023-07-16T00:55:48;13.23;;;5.70;;
59159;SDS011;44941;45.058;20.076;2023-07-16T00:58:14;9.40;;;5.55;;
59159;SDS011;44941;45.058;20.076;2023-07-16T01:00:40;10.63;;;5.80;;
59159;SDS011;44941;45.058;20.076;2023-07-16T01:03:08;18.17;;;6.05;;
59159;SDS011;44941;45.058;20.076;2023-07-16T01:05:57;9.52;;;5.40;;
59159;SDS011;44941;45.058;20.076;2023-07-16T01:08:30;15.38;;;5.97;;
59159;SDS011;44941;45.058;20.076;2023-07-16T01:10:57;14.27;;;6.10;;
59159;SDS011;44941;45.058;20.076;2023-07-16T01:13:24;11.02;;;5.82;;
59159;SDS011;44941;45.058;20.076;2023-07-16T01:15:50;10.43;;;5.93;;
59159;SDS011;44941;45.058;20.076;2023-07-16T01:18:16;12.68;;;6.07;;
59159;SDS011;44941;45.058;20.076;2023-07-16T01:20:43;12.45;;;6.30;;
59159;SDS011;44941;45.058;20.076;2023-07-16T01:31:17;8.95;;;5.85;;
59159;SDS011;44941;45.058;20.076;2023-07-16T01:33:43;12.60;;;5.57;;
59159;SDS011;44941;45.058;20.076;2023-07-16T01:36:10;12.30;;;6.17;;
59159;SDS011;44941;45.058;20.076;2023-07-16T01:38:36;10.57;;;6.70;;
59159;SDS011;44941;45.058;20.076;2023-07-16T01:41:02;13.20;;;6.18;;
59159;SDS011;44941;45.058;20.076;2023-07-16T01:43:28;13.90;;;6.75;;
59159;SDS011;44941;45.058;20.076;2023-07-16T01:45:54;12.15;;;6.28;;
59159;SDS011;44941;45.058;20.076;2023-07-16T01:48:30;11.65;;;6.40;;
59159;SDS011;44941;45.058;20.076;2023-07-16T01:50:57;10.80;;;6.15;;
59159;SDS011;44941;45.058;20.076;2023-07-16T01:53:23;12.95;;;6.72;;
59159;SDS011;44941;45.058;20.076;2023-07-16T01:55:49;11.48;;;6.60;;
59159;SDS011;44941;45.058;20.076;2023-07-16T01:58:15;10.55;;;6.15;;
59159;SDS011;44941;45.058;20.076;2023-07-16T02:00:41;10.73;;;6.18;;
59159;SDS011;44941;45.058;20.076;2023-07-16T02:03:07;13.70;;;6.57;;
59159;SDS011;44941;45.058;20.076;2023-07-16T02:05:33;12.85;;;6.38;;
59159;SDS011;44941;45.058;20.076;2023-07-16T02:08:00;14.43;;;7.05;;
59159;SDS011;44941;45.058;20.076;2023-07-16T02:10:26;14.38;;;6.78;;
59159;SDS011;44941;45.058;20.076;2023-07-16T02:12:52;15.00;;;6.85;;
59159;SDS011;44941;45.058;20.076;2023-07-16T02:15:18;14.82;;;6.53;;
59159;SDS011;44941;45.058;20.076;2023-07-16T02:17:44;17.50;;;7.20;;
59159;SDS011;44941;45.058;20.076;2023-07-16T02:20:11;12.35;;;6.50;;
59159;SDS011;44941;45.058;20.076;2023-07-16T02:22:37;9.85;;;6.57;;
59159;SDS011;44941;45.058;20.076;2023-07-16T02:25:03;16.58;;;7.13;;
59159;SDS011;44941;45.058;20.076;2023-07-16T02:27:29;20.88;;;6.90;;
59159;SDS011;44941;45.058;20.076;2023-07-16T02:29:56;13.23;;;6.63;;
59159;SDS011;44941;45.058;20.076;2023-07-16T02:32:22;11.90;;;7.07;;
59159;SDS011;44941;45.058;20.076;2023-07-16T02:34:48;15.02;;;7.00;;
59159;SDS011;44941;45.058;20.076;2023-07-16T02:37:14;13.65;;;6.78;;
59159;SDS011;44941;45.058;20.076;2023-07-16T02:39:41;12.52;;;6.63;;
59159;SDS011;44941;45.058;20.076;2023-07-16T02:42:07;11.85;;;6.60;;
59159;SDS011;44941;45.058;20.076;2023-07-16T02:44:33;12.95;;;7.25;;
59159;SDS011;44941;45.058;20.076;2023-07-16T02:47:03;17.20;;;7.65;;
59159;SDS011;44941;45.058;20.076;2023-07-16T02:49:29;15.52;;;7.38;;
59159;SDS011;44941;45.058;20.076;2023-07-16T02:51:55;13.43;;;7.38;;
59159;SDS011;44941;45.058;20.076;2023-07-16T02:54:21;11.73;;;7.00;;
59159;SDS011;44941;45.058;20.076;2023-07-16T02:56:48;14.60;;;6.90;;
59159;SDS011;44941;45.058;20.076;2023-07-16T02:59:14;11.40;;;7.60;;
59159;SDS011;44941;45.058;20.076;2023-07-16T03:01:40;16.83;;;8.07;;
59159;SDS011;44941;45.058;20.076;2023-07-16T03:04:06;15.10;;;6.88;;
59159;SDS011;44941;45.058;20.076;2023-07-16T03:06:32;15.90;;;6.97;;
59159;SDS011;44941;45.058;20.076;2023-07-16T03:08:58;12.65;;;7.50;;
59159;SDS011;44941;45.058;20.076;2023-07-16T03:11:24;15.30;;;8.13;;
59159;SDS011;44941;45.058;20.076;2023-07-16T03:13:50;12.25;;;7.43;;
59159;SDS011;44941;45.058;20.076;2023-07-16T03:16:16;15.60;;;7.32;;
59159;SDS011;44941;45.058;20.076;2023-07-16T03:18:43;11.45;;;6.72;;
59159;SDS011;44941;45.058;20.076;2023-07-16T03:21:10;15.13;;;8.20;;
59159;SDS011;44941;45.058;20.076;2023-07-16T03:23:36;17.25;;;7.55;;
59159;SDS011;44941;45.058;20.076;2023-07-16T03:26:02;12.77;;;7.43;;
59159;SDS011;44941;45.058;20.076;2023-07-16T03:28:28;14.13;;;7.82;;
59159;SDS011;44941;45.058;20.076;2023-07-16T03:30:54;11.32;;;6.88;;
59159;SDS011;44941;45.058;20.076;2023-07-16T03:33:20;11.98;;;7.53;;
59159;SDS011;44941;45.058;20.076;2023-07-16T03:35:48;13.45;;;7.18;;
59159;SDS011;44941;45.058;20.076;2023-07-16T03:38:14;15.23;;;7.80;;
59159;SDS011;44941;45.058;20.076;2023-07-16T03:40:46;12.85;;;7.25;;
59159;SDS011;44941;45.058;20.076;2023-07-16T03:43:13;13.75;;;8.02;;
59159;SDS011;44941;45.058;20.076;2023-07-16T03:45:39;15.02;;;8.07;;
59159;SDS011;44941;45.058;20.076;2023-07-16T03:48:05;17.63;;;8.07;;
59159;SDS011;44941;45.058;20.076;2023-07-16T03:50:31;13.50;;;7.63;;
59159;SDS011;44941;45.058;20.076;2023-07-16T03:52:57;15.05;;;8.00;;
59159;SDS011;44941;45.058;20.076;2023-07-16T03:55:23;15.27;;;8.23;;
59159;SDS011;44941;45.058;20.076;2023-07-16T03:57:50;11.07;;;7.23;;
59159;SDS011;44941;45.058;20.076;2023-07-16T04:00:16;14.35;;;7.95;;
59159;SDS011;44941;45.058;20.076;2023-07-16T04:02:42;12.60;;;8.13;;
59159;SDS011;44941;45.058;20.076;2023-07-16T04:05:09;12.70;;;8.00;;
59159;SDS011;44941;45.058;20.076;2023-07-16T04:07:35;14.50;;;8.63;;
59159;SDS011;44941;45.058;20.076;2023-07-16T04:10:01;11.48;;;8.20;;
59159;SDS011;44941;45.058;20.076;2023-07-16T04:12:27;14.63;;;7.90;;
59159;SDS011;44941;45.058;20.076;2023-07-16T04:14:55;11.82;;;7.97;;
59159;SDS011;44941;45.058;20.076;2023-07-16T04:17:22;10.48;;;7.30;;
59159;SDS011;44941;45.058;20.076;2023-07-16T04:19:48;14.43;;;8.23;;
59159;SDS011;44941;45.058;20.076;2023-07-16T04:22:14;17.27;;;8.48;;
59159;SDS011;44941;45.058;20.076;2023-07-16T04:24:40;12.95;;;7.80;;
59159;SDS011;44941;45.058;20.076;2023-07-16T04:27:06;14.73;;;8.85;;
59159;SDS011;44941;45.058;20.076;2023-07-16T04:29:32;14.82;;;8.90;;
59159;SDS011;44941;45.058;20.076;2023-07-16T04:31:58;18.17;;;8.80;;
59159;SDS011;44941;45.058;20.076;2023-07-16T04:34:24;18.58;;;8.93;;
59159;SDS011;44941;45.058;20.076;2023-07-16T04:36:50;14.40;;;8.90;;
59159;SDS011;44941;45.058;20.076;2023-07-16T04:39:16;19.08;;;10.15;;
59159;SDS011;44941;45.058;20.076;2023-07-16T04:41:43;14.57;;;8.80;;
59159;SDS011;44941;45.058;20.076;2023-07-16T04:44:09;12.45;;;8.60;;
59159;SDS011;44941;45.058;20.076;2023-07-16T04:46:35;16.92;;;8.98;;
59159;SDS011;44941;45.058;20.076;2023-07-16T04:49:01;15.75;;;9.25;;
59159;SDS011;44941;45.058;20.076;2023-07-16T04:51:27;20.70;;;10.13;;
59159;SDS011;44941;45.058;20.076;2023-07-16T04:53:53;17.40;;;10.00;;
59159;SDS011;44941;45.058;20.076;2023-07-16T04:56:20;18.02;;;9.77;;
59159;SDS011;44941;45.058;20.076;2023-07-16T04:58:46;15.25;;;9.48;;
59159;SDS011;44941;45.058;20.076;2023-07-16T05:01:12;23.38;;;9.88;;
59159;SDS011;44941;45.058;20.076;2023-07-16T05:03:38;20.40;;;10.88;;
59159;SDS011;44941;45.058;20.076;2023-07-16T05:06:04;27.33;;;19.88;;
59159;SDS011;44941;45.058;20.076;2023-07-16T05:08:30;22.27;;;14.23;;
59159;SDS011;44941;45.058;20.076;2023-07-16T05:10:56;16.67;;;10.32;;
59159;SDS011;44941;45.058;20.076;2023-07-16T05:13:24;18.38;;;8.85;;
59159;SDS011;44941;45.058;20.076;2023-07-16T05:15:50;19.20;;;9.23;;
59159;SDS011;44941;45.058;20.076;2023-07-16T05:18:16;18.08;;;9.18;;
59159;SDS011;44941;45.058;20.076;2023-07-16T05:20:42;18.05;;;9.88;;
59159;SDS011;44941;45.058;20.076;2023-07-16T05:23:09;19.05;;;9.25;;
59159;SDS011;44941;45.058;20.076;2023-07-16T05:25:35;19.10;;;9.48;;
59159;SDS011;44941;45.058;20.076;2023-07-16T05:28:01;18.80;;;9.48;;
59159;SDS011;44941;45.058;20.076;2023-07-16T05:30:27;17.75;;;9.02;;
59159;SDS011;44941;45.058;20.076;2023-07-16T05:32:53;17.27;;;9.13;;
59159;SDS011;44941;45.058;20.076;2023-07-16T05:35:19;19.08;;;9.60;;
59159;SDS011;44941;45.058;20.076;2023-07-16T05:37:47;22.95;;;9.45;;
59159;SDS011;44941;45.058;20.076;2023-07-16T05:42:39;16.00;;;8.98;;
59159;SDS011;44941;45.058;20.076;2023-07-16T05:45:05;18.23;;;8.50;;
59159;SDS011;44941;45.058;20.076;2023-07-16T05:47:31;18.25;;;8.68;;
59159;SDS011;44941;45.058;20.076;2023-07-16T05:49:57;19.88;;;8.32;;
59159;SDS011;44941;45.058;20.076;2023-07-16T05:52:23;19.10;;;8.57;;
59159;SDS011;44941;45.058;20.076;2023-07-16T05:54:49;13.93;;;8.43;;
59159;SDS011;44941;45.058;20.076;2023-07-16T05:57:15;14.35;;;7.50;;
59159;SDS011;44941;45.058;20.076;2023-07-16T05:59:41;15.95;;;7.75;;
59159;SDS011;44941;45.058;20.076;2023-07-16T06:02:08;15.98;;;7.88;;
59159;SDS011;44941;45.058;20.076;2023-07-16T06:04:34;15.43;;;8.02;;
59159;SDS011;44941;45.058;20.076;2023-07-16T06:07:00;18.92;;;8.73;;
59159;SDS011;44941;45.058;20.076;2023-07-16T06:09:26;15.20;;;8.68;;
59159;SDS011;44941;45.058;20.076;2023-07-16T06:11:52;16.70;;;8.02;;
59159;SDS011;44941;45.058;20.076;2023-07-16T06:14:18;22.88;;;9.98;;
59159;SDS011;44941;45.058;20.076;2023-07-16T06:16:44;18.70;;;8.45;;
59159;SDS011;44941;45.058;20.076;2023-07-16T06:19:10;19.15;;;8.70;;
59159;SDS011;44941;45.058;20.076;2023-07-16T06:21:36;14.73;;;7.82;;
59159;SDS011;44941;45.058;20.076;2023-07-16T06:24:03;14.23;;;7.55;;
59159;SDS011;44941;45.058;20.076;2023-07-16T06:26:29;13.40;;;7.63;;
59159;SDS011;44941;45.058;20.076;2023-07-16T06:31:22;16.50;;;8.32;;
59159;SDS011;44941;45.058;20.076;2023-07-16T06:33:48;12.48;;;7.07;;
59159;SDS011;44941;45.058;20.076;2023-07-16T06:36:15;14.30;;;7.28;;
59159;SDS011;44941;45.058;20.076;2023-07-16T06:38:42;13.30;;;8.07;;
59159;SDS011;44941;45.058;20.076;2023-07-16T06:41:08;13.85;;;7.13;;
59159;SDS011;44941;45.058;20.076;2023-07-16T06:43:34;20.35;;;7.32;;
59159;SDS011;44941;45.058;20.076;2023-07-16T06:46:00;13.60;;;7.28;;
59159;SDS011;44941;45.058;20.076;2023-07-16T06:48:26;12.20;;;7.72;;
59159;SDS011;44941;45.058;20.076;2023-07-16T06:50:52;14.55;;;7.55;;
59159;SDS011;44941;45.058;20.076;2023-07-16T06:53:18;13.75;;;7.47;;
59159;SDS011;44941;45.058;20.076;2023-07-16T06:55:44;12.48;;;7.53;;
59159;SDS011;44941;45.058;20.076;2023-07-16T06:58:13;13.40;;;6.95;;
59159;SDS011;44941;45.058;20.076;2023-07-16T07:00:42;11.27;;;7.35;;
59159;SDS011;44941;45.058;20.076;2023-07-16T07:03:08;11.88;;;7.15;;
59159;SDS011;44941;45.058;20.076;2023-07-16T07:05:34;10.13;;;6.35;;
59159;SDS011;44941;45.058;20.076;2023-07-16T07:08:03;12.65;;;7.20;;
59159;SDS011;44941;45.058;20.076;2023-07-16T07:10:29;9.65;;;5.80;;
59159;SDS011;44941;45.058;20.076;2023-07-16T07:13:07;13.40;;;6.40;;
59159;SDS011;44941;45.058;20.076;2023-07-16T07:15:33;10.77;;;6.03;;
59159;SDS011;44941;45.058;20.076;2023-07-16T07:18:00;11.95;;;6.32;;
59159;SDS011;44941;45.058;20.076;2023-07-16T07:20:26;11.27;;;5.78;;
59159;SDS011;44941;45.058;20.076;2023-07-16T07:22:52;11.98;;;5.65;;
59159;SDS011;44941;45.058;20.076;2023-07-16T07:25:18;12.43;;;6.18;;
59159;SDS011;44941;45.058;20.076;2023-07-16T07:27:44;12.20;;;6.18;;
59159;SDS011;44941;45.058;20.076;2023-07-16T07:30:11;11.02;;;5.90;;
59159;SDS011;44941;45.058;20.076;2023-07-16T07:32:37;10.75;;;6.18;;
59159;SDS011;44941;45.058;20.076;2023-07-16T07:35:04;11.27;;;5.50;;
59159;SDS011;44941;45.058;20.076;2023-07-16T07:37:31;9.10;;;5.75;;
59159;SDS011;44941;45.058;20.076;2023-07-16T07:39:58;9.05;;;6.35;;
59159;SDS011;44941;45.058;20.076;2023-07-16T07:42:24;9.98;;;5.47;;
59159;SDS011;44941;45.058;20.076;2023-07-16T07:44:52;14.90;;;5.68;;
59159;SDS011;44941;45.058;20.076;2023-07-16T07:47:18;15.25;;;6.20;;
59159;SDS011;44941;45.058;20.076;2023-07-16T07:49:44;17.60;;;5.40;;
59159;SDS011;44941;45.058;20.076;2023-07-16T07:52:10;11.65;;;6.03;;
59159;SDS011;44941;45.058;20.076;2023-07-16T07:54:36;10.60;;;5.60;;
59159;SDS011;44941;45.058;20.076;2023-07-16T07:57:03;10.05;;;5.82;;
59159;SDS011;44941;45.058;20.076;2023-07-16T08:01:58;13.77;;;6.15;;
59159;SDS011;44941;45.058;20.076;2023-07-16T08:04:26;10.73;;;5.90;;
59159;SDS011;44941;45.058;20.076;2023-07-16T08:06:53;10.65;;;5.53;;
59159;SDS011;44941;45.058;20.076;2023-07-16T08:09:19;8.40;;;5.40;;
59159;SDS011;44941;45.058;20.076;2023-07-16T08:11:45;10.20;;;5.93;;
59159;SDS011;44941;45.058;20.076;2023-07-16T08:14:11;9.95;;;5.20;;
59159;SDS011;44941;45.058;20.076;2023-07-16T08:16:38;9.35;;;5.63;;
59159;SDS011;44941;45.058;20.076;2023-07-16T08:19:04;13.25;;;6.10;;
59159;SDS011;44941;45.058;20.076;2023-07-16T08:21:30;11.38;;;6.20;;
59159;SDS011;44941;45.058;20.076;2023-07-16T08:23:56;10.15;;;5.72;;
59159;SDS011;44941;45.058;20.076;2023-07-16T08:26:22;11.10;;;5.60;;
59159;SDS011;44941;45.058;20.076;2023-07-16T08:28:48;9.18;;;5.63;;
59159;SDS011;44941;45.058;20.076;2023-07-16T08:31:14;17.13;;;5.83;;
59159;SDS011;44941;45.058;20.076;2023-07-16T08:33:40;13.88;;;5.55;;
59159;SDS011;44941;45.058;20.076;2023-07-16T08:36:06;11.80;;;6.35;;
59159;SDS011;44941;45.058;20.076;2023-07-16T08:38:33;9.40;;;5.60;;
59159;SDS011;44941;45.058;20.076;2023-07-16T08:41:02;11.23;;;5.85;;
59159;SDS011;44941;45.058;20.076;2023-07-16T08:43:28;9.00;;;4.85;;
59159;SDS011;44941;45.058;20.076;2023-07-16T08:45:55;10.90;;;5.63;;
59159;SDS011;44941;45.058;20.076;2023-07-16T08:48:21;8.50;;;5.25;;
59159;SDS011;44941;45.058;20.076;2023-07-16T08:50:47;10.32;;;5.35;;
59159;SDS011;44941;45.058;20.076;2023-07-16T08:53:16;7.73;;;4.87;;
59159;SDS011;44941;45.058;20.076;2023-07-16T08:55:44;10.32;;;5.43;;
59159;SDS011;44941;45.058;20.076;2023-07-16T08:58:12;11.55;;;5.20;;
59159;SDS011;44941;45.058;20.076;2023-07-16T09:00:39;8.93;;;4.88;;
59159;SDS011;44941;45.058;20.076;2023-07-16T09:03:05;10.32;;;4.90;;
59159;SDS011;44941;45.058;20.076;2023-07-16T09:05:31;9.30;;;4.80;;
59159;SDS011;44941;45.058;20.076;2023-07-16T09:08:00;13.63;;;6.18;;
59159;SDS011;44941;45.058;20.076;2023-07-16T09:10:26;11.50;;;5.05;;
59159;SDS011;44941;45.058;20.076;2023-07-16T09:12:52;9.90;;;5.68;;
59159;SDS011;44941;45.058;20.076;2023-07-16T09:15:18;11.65;;;4.97;;
59159;SDS011;44941;45.058;20.076;2023-07-16T09:17:48;9.30;;;5.32;;
59159;SDS011;44941;45.058;20.076;2023-07-16T09:20:17;13.55;;;5.25;;
59159;SDS011;44941;45.058;20.076;2023-07-16T09:22:44;11.75;;;5.30;;
59159;SDS011;44941;45.058;20.076;2023-07-16T09:25:10;11.13;;;4.75;;
59159;SDS011;44941;45.058;20.076;2023-07-16T09:27:37;9.32;;;4.93;;
59159;SDS011;44941;45.058;20.076;2023-07-16T09:30:03;8.65;;;4.45;;
59159;SDS011;44941;45.058;20.076;2023-07-16T09:32:39;7.85;;;4.88;;
59159;SDS011;44941;45.058;20.076;2023-07-16T09:35:09;8.65;;;4.80;;
59159;SDS011;44941;45.058;20.076;2023-07-16T09:37:36;10.63;;;4.82;;
59159;SDS011;44941;45.058;20.076;2023-07-16T09:40:03;11.98;;;5.20;;
59159;SDS011;44941;45.058;20.076;2023-07-16T09:42:31;9.18;;;4.70;;
59159;SDS011;44941;45.058;20.076;2023-07-16T09:45:00;11.07;;;5.10;;
59159;SDS011;44941;45.058;20.076;2023-07-16T09:47:27;9.00;;;5.50;;
59159;SDS011;44941;45.058;20.076;2023-07-16T09:50:11;10.20;;;5.70;;
59159;SDS011;44941;45.058;20.076;2023-07-16T09:52:37;10.50;;;6.38;;
59159;SDS011;44941;45.058;20.076;2023-07-16T09:55:08;13.88;;;6.75;;
59159;SDS011;44941;45.058;20.076;2023-07-16T09:57:39;11.23;;;7.72;;
59159;SDS011;44941;45.058;20.076;2023-07-16T10:00:08;11.07;;;7.13;;
59159;SDS011;44941;45.058;20.076;2023-07-16T10:02:38;10.52;;;6.13;;
59159;SDS011;44941;45.058;20.076;2023-07-16T10:05:11;10.35;;;5.70;;
59159;SDS011;44941;45.058;20.076;2023-07-16T10:07:37;13.00;;;6.25;;
59159;SDS011;44941;45.058;20.076;2023-07-16T10:10:07;10.20;;;7.15;;
59159;SDS011;44941;45.058;20.076;2023-07-16T10:12:34;11.65;;;6.40;;
59159;SDS011;44941;45.058;20.076;2023-07-16T10:17:29;11.07;;;6.13;;
59159;SDS011;44941;45.058;20.076;2023-07-16T10:22:34;13.88;;;7.28;;
59159;SDS011;44941;45.058;20.076;2023-07-16T10:25:26;10.38;;;6.70;;
59159;SDS011;44941;45.058;20.076;2023-07-16T10:27:50;12.90;;;7.32;;
59159;SDS011;44941;45.058;20.076;2023-07-16T10:30:17;8.75;;;6.28;;
59159;SDS011;44941;45.058;20.076;2023-07-16T10:32:50;9.13;;;6.72;;
59159;SDS011;44941;45.058;20.076;2023-07-16T10:35:18;10.35;;;7.07;;
59159;SDS011;44941;45.058;20.076;2023-07-16T10:37:44;11.27;;;7.60;;
59159;SDS011;44941;45.058;20.076;2023-07-16T10:40:11;12.57;;;7.33;;
59159;SDS011;44941;45.058;20.076;2023-07-16T10:45:04;18.35;;;7.25;;
59159;SDS011;44941;45.058;20.076;2023-07-16T10:47:31;17.25;;;6.93;;
59159;SDS011;44941;45.058;20.076;2023-07-16T10:49:57;12.80;;;8.40;;
59159;SDS011;44941;45.058;20.076;2023-07-16T10:52:23;11.93;;;8.25;;
59159;SDS011;44941;45.058;20.076;2023-07-16T10:54:50;11.63;;;7.93;;
59159;SDS011;44941;45.058;20.076;2023-07-16T10:57:25;8.80;;;6.63;;
59159;SDS011;44941;45.058;20.076;2023-07-16T10:59:52;10.48;;;7.25;;
59159;SDS011;44941;45.058;20.076;2023-07-16T11:02:19;12.52;;;7.78;;
59159;SDS011;44941;45.058;20.076;2023-07-16T11:04:46;13.50;;;9.13;;
59159;SDS011;44941;45.058;20.076;2023-07-16T11:07:13;13.57;;;8.23;;
59159;SDS011;44941;45.058;20.076;2023-07-16T11:12:15;14.98;;;8.57;;
59159;SDS011;44941;45.058;20.076;2023-07-16T11:15:03;11.80;;;7.53;;
59159;SDS011;44941;45.058;20.076;2023-07-16T11:17:28;10.45;;;7.45;;
59159;SDS011;44941;45.058;20.076;2023-07-16T11:19:55;14.33;;;8.00;;
59159;SDS011;44941;45.058;20.076;2023-07-16T11:22:27;10.30;;;7.95;;
59159;SDS011;44941;45.058;20.076;2023-07-16T11:24:53;12.90;;;8.73;;
59159;SDS011;44941;45.058;20.076;2023-07-16T11:27:20;11.82;;;7.85;;
59159;SDS011;44941;45.058;20.076;2023-07-16T11:32:13;10.63;;;7.55;;
59159;SDS011;44941;45.058;20.076;2023-07-16T11:34:51;10.85;;;8.50;;
59159;SDS011;44941;45.058;20.076;2023-07-16T11:37:17;10.98;;;7.85;;
59159;SDS011;44941;45.058;20.076;2023-07-16T11:39:45;11.80;;;8.10;;
59159;SDS011;44941;45.058;20.076;2023-07-16T11:42:12;12.63;;;7.82;;
59159;SDS011;44941;45.058;20.076;2023-07-16T11:44:38;12.63;;;8.43;;
59159;SDS011;44941;45.058;20.076;2023-07-16T11:47:04;13.52;;;8.35;;
59159;SDS011;44941;45.058;20.076;2023-07-16T11:49:30;13.67;;;8.40;;
59159;SDS011;44941;45.058;20.076;2023-07-16T11:51:57;17.57;;;8.23;;
59159;SDS011;44941;45.058;20.076;2023-07-16T11:54:24;12.55;;;8.00;;
59159;SDS011;44941;45.058;20.076;2023-07-16T11:56:50;15.17;;;9.13;;
59159;SDS011;44941;45.058;20.076;2023-07-16T11:59:16;13.07;;;9.07;;
59159;SDS011;44941;45.058;20.076;2023-07-16T12:01:45;10.95;;;8.20;;
59159;SDS011;44941;45.058;20.076;2023-07-16T12:06:38;11.82;;;8.95;;
59159;SDS011;44941;45.058;20.076;2023-07-16T12:09:04;13.65;;;8.50;;
59159;SDS011;44941;45.058;20.076;2023-07-16T12:11:31;11.20;;;8.48;;
59159;SDS011;44941;45.058;20.076;2023-07-16T12:13:57;12.10;;;9.57;;
59159;SDS011;44941;45.058;20.076;2023-07-16T12:16:23;14.83;;;8.90;;
59159;SDS011;44941;45.058;20.076;2023-07-16T12:18:49;13.23;;;9.00;;
59159;SDS011;44941;45.058;20.076;2023-07-16T12:21:15;10.73;;;8.53;;
59159;SDS011;44941;45.058;20.076;2023-07-16T12:23:41;14.33;;;8.97;;
59159;SDS011;44941;45.058;20.076;2023-07-16T12:26:07;11.00;;;8.40;;
59159;SDS011;44941;45.058;20.076;2023-07-16T12:28:33;13.65;;;9.07;;
59159;SDS011;44941;45.058;20.076;2023-07-16T12:31:00;11.77;;;8.53;;
59159;SDS011;44941;45.058;20.076;2023-07-16T12:33:26;9.17;;;7.67;;
59159;SDS011;44941;45.058;20.076;2023-07-16T12:35:52;15.93;;;8.93;;
59159;SDS011;44941;45.058;20.076;2023-07-16T12:38:18;16.47;;;9.03;;
59159;SDS011;44941;45.058;20.076;2023-07-16T12:40:44;13.43;;;8.90;;
59159;SDS011;44941;45.058;20.076;2023-07-16T12:43:10;10.97;;;8.80;;
59159;SDS011;44941;45.058;20.076;2023-07-16T12:45:36;13.37;;;9.33;;
59159;SDS011;44941;45.058;20.076;2023-07-16T12:48:02;11.27;;;8.57;;
59159;SDS011;44941;45.058;20.076;2023-07-16T12:50:28;16.23;;;9.00;;
59159;SDS011;44941;45.058;20.076;2023-07-16T12:52:57;15.83;;;9.47;;
59159;SDS011;44941;45.058;20.076;2023-07-16T12:55:23;16.10;;;9.70;;
59159;SDS011;44941;45.058;20.076;2023-07-16T12:57:49;12.05;;;8.93;;
59159;SDS011;44941;45.058;20.076;2023-07-16T13:00:16;13.63;;;9.65;;
59159;SDS011;44941;45.058;20.076;2023-07-16T13:02:42;16.67;;;9.83;;
59159;SDS011;44941;45.058;20.076;2023-07-16T13:05:08;13.27;;;8.57;;
59159;SDS011;44941;45.058;20.076;2023-07-16T13:07:34;11.03;;;9.07;;
59159;SDS011;44941;45.058;20.076;2023-07-16T13:10:00;12.17;;;9.03;;
59159;SDS011;44941;45.058;20.076;2023-07-16T13:12:26;12.87;;;8.67;;
59159;SDS011;44941;45.058;20.076;2023-07-16T13:14:52;14.00;;;9.00;;
59159;SDS011;44941;45.058;20.076;2023-07-16T13:17:18;11.73;;;9.17;;
59159;SDS011;44941;45.058;20.076;2023-07-16T13:19:45;11.27;;;9.70;;
59159;SDS011;44941;45.058;20.076;2023-07-16T13:22:12;14.90;;;10.20;;
59159;SDS011;44941;45.058;20.076;2023-07-16T13:24:39;11.60;;;9.20;;
59159;SDS011;44941;45.058;20.076;2023-07-16T13:27:05;16.00;;;9.63;;
59159;SDS011;44941;45.058;20.076;2023-07-16T13:29:31;12.93;;;10.40;;
59159;SDS011;44941;45.058;20.076;2023-07-16T13:31:57;15.60;;;10.97;;
59159;SDS011;44941;45.058;20.076;2023-07-16T13:34:23;17.52;;;11.20;;
59159;SDS011;44941;45.058;20.076;2023-07-16T13:36:49;14.70;;;11.33;;
59159;SDS011;44941;45.058;20.076;2023-07-16T13:39:16;14.20;;;11.05;;
59159;SDS011;44941;45.058;20.076;2023-07-16T13:41:42;12.40;;;11.00;;
59159;SDS011;44941;45.058;20.076;2023-07-16T13:44:08;13.20;;;10.93;;
59159;SDS011;44941;45.058;20.076;2023-07-16T13:46:34;14.50;;;10.30;;
59159;SDS011;44941;45.058;20.076;2023-07-16T13:49:02;12.50;;;10.18;;
59159;SDS011;44941;45.058;20.076;2023-07-16T13:51:28;14.45;;;9.98;;
59159;SDS011;44941;45.058;20.076;2023-07-16T13:53:54;13.40;;;10.40;;
59159;SDS011;44941;45.058;20.076;2023-07-16T13:56:20;15.98;;;10.35;;
59159;SDS011;44941;45.058;20.076;2023-07-16T13:58:46;13.50;;;11.23;;
59159;SDS011;44941;45.058;20.076;2023-07-16T14:01:12;14.13;;;12.63;;
59159;SDS011;44941;45.058;20.076;2023-07-16T14:03:39;17.73;;;12.02;;
59159;SDS011;44941;45.058;20.076;2023-07-16T14:06:05;16.30;;;12.77;;
59159;SDS011;44941;45.058;20.076;2023-07-16T14:08:31;14.70;;;13.17;;
59159;SDS011;44941;45.058;20.076;2023-07-16T14:10:59;19.60;;;14.50;;
59159;SDS011;44941;45.058;20.076;2023-07-16T14:13:25;16.73;;;14.93;;
59159;SDS011;44941;45.058;20.076;2023-07-16T14:15:51;15.40;;;13.80;;
59159;SDS011;44941;45.058;20.076;2023-07-16T14:18:17;14.85;;;13.30;;
59159;SDS011;44941;45.058;20.076;2023-07-16T14:20:43;17.90;;;14.43;;
59159;SDS011;44941;45.058;20.076;2023-07-16T14:23:09;18.93;;;15.37;;
59159;SDS011;44941;45.058;20.076;2023-07-16T14:25:35;19.20;;;15.98;;
59159;SDS011;44941;45.058;20.076;2023-07-16T14:28:01;17.48;;;15.27;;
59159;SDS011;44941;45.058;20.076;2023-07-16T14:30:28;16.02;;;13.20;;
59159;SDS011;44941;45.058;20.076;2023-07-16T14:32:55;17.48;;;12.02;;
59159;SDS011;44941;45.058;20.076;2023-07-16T14:35:21;15.25;;;13.25;;
59159;SDS011;44941;45.058;20.076;2023-07-16T14:37:47;14.57;;;12.90;;
59159;SDS011;44941;45.058;20.076;2023-07-16T14:40:13;16.83;;;12.75;;
59159;SDS011;44941;45.058;20.076;2023-07-16T14:42:39;16.27;;;13.43;;
59159;SDS011;44941;45.058;20.076;2023-07-16T14:45:06;15.27;;;12.40;;
59159;SDS011;44941;45.058;20.076;2023-07-16T14:47:33;13.55;;;12.15;;
59159;SDS011;44941;45.058;20.076;2023-07-16T14:49:59;15.98;;;11.68;;
59159;SDS011;44941;45.058;20.076;2023-07-16T14:52:25;16.08;;;11.07;;